Meadows Field
KBFL : now visible

Airfield :











YOU CAN JOIN US ON...

 
LOGIN :

Register | Disclaimer

   EN    FR    IT 

 









Legend :    VFR   Marginal VFR   IFR   Intensive IFR   Very Intensive IFR
Visi :
Ceiling :
>= 8 km
>= 3000ft
5 to 8 km
1000 to 3000 ft
1500m to 5 km
500 to 1000 ft
800 to 1500m
200 to 500 ft
< 800m
< 200 ft
Symbols :   Thunderstorms  Fog  Heavy snow  Heavy precipitations  Wind > 20 kt






- Airport Elevation : 510 ft
- IATA code : BFL


KBFL - Meadows Field

CURRENT METAR :
  • 072054Z 01006KT 10SM BKN037 17/07 A3003 RMK AO2 SLP165 T01670067 58021

EXPIRED METARs :
  • 071954Z 33008KT 10SM SCT037 17/07 A3005 RMK AO2 SLP175 T01670067
  • 071854Z VRB06KT 10SM SCT030 14/06 A3008 RMK AO2 SLP182 T01440061
  • 071847Z VRB04KT 10SM BKN030 14/07 A3008 RMK AO2 T01440067
  • 071837Z 31010KT 10SM BKN028 14/07 A3008 RMK AO2 T01440067
  • 071823Z 32006KT 10SM SCT026 BKN100 14/06 A3008 RMK AO2 T01390061
  • 071808Z 29006KT 10SM BKN026 BKN100 14/07 A3008 RMK AO2 T01390067

TAF KBFL
Valid from the 07 at 18:00 until the 08 at 18:00 UTC


071720Z 0718/0818 VRB06KT P6SM OVC050
FM072300 32007KT 6SM -SHRA SCT025 OVC050
FM080400 VRB03KT 6SM -RA BR OVC035
FM081200 33005KT P6SM -SHRA OVC050



MET'MAP, your aeronautical weather chart ! - Copyright ORBIFLY December 2007 - Disclaimer

ORBIFLY MET'MAP TEAM :

Programming & Development : Alexandra Zaïnal
Concept & original design : Baudouin d'Aumeries
Assistance for programming : Marc-Olivier Méhu
Technical & hardware support : Manuel Goepfert

Contact : metmap@orbifly.com




SOURCES & CREDITS :

   NOAA       Earth
Advisory